Flight Track Log - Related Links

Times and Time Zones

All times are in EDT time to prevent confusion due to time zone crossing. See the OPT330 flight status page for this flight to view local times or setup timezone preferences in your user account.

Time Position Orientation Groundspeed Altitude Reporting Facility
EDT Latitude Longitude Course Direction KTS MPH feet Rate Location/Type
Mon 09:18:20 AM 41.7730 -85.9308 90° East 321 369 13,100  Level FlightAware ADS-B
Mon 09:18:51 AM 41.7737 -85.8682 89° East 336 387 14,500 2,630 Climbing FlightAware ADS-B
Mon 09:19:33 AM 41.7743 -85.7917 89° East 349 402 16,300 2,545 Climbing FlightAware ADS-B
Mon 09:20:30 AM 41.7754 -85.6526 89° East 349 402 18,700 2,190 Climbing FlightAware ADS-B
Mon 09:21:50 AM 41.7775 -85.4903 89° East 371 427 21,300 2,155 Climbing Chicago Center
Mon 09:22:52 AM 41.7775 -85.3439 90° East 381 438 23,800 2,226 Climbing Chicago Center
Mon 09:23:54 AM 41.7783 -85.1939 90° East 393 452 25,900 2,000 Climbing Chicago Center
Mon 09:24:07 AM 41.7783 -85.1633 90° East 397 457 26,300 2,080 Climbing Chicago Center
Mon 09:25:09 AM 41.7786 -85.0083 90° East 411 473 28,500 2,371 Climbing Chicago Center
Mon 09:26:11 AM 41.7792 -84.8197 90° East 423 487 31,200 2,129 Climbing Chicago Center
Mon 09:26:42 AM 41.7786 -84.7567 91° East 418 481 31,800 1,532 Climbing Cleveland Center
Mon 09:27:45 AM 41.7778 -84.5956 90° East 428 493 33,600 1,968 Climbing Cleveland Center
Mon 09:28:47 AM 41.7778 -84.4075 90° East 426 490 35,900 950 Climbing Cleveland Center
Mon 09:34:48 AM 41.7566 -83.3987 97° East 477 549 40,300 737 Climbing FlightAware ADS-B (CYYZ)
Mon 09:35:18 AM 41.7476 -83.3063 97° East 473 544 40,700 700 Climbing FlightAware ADS-B (CYYZ)
Mon 09:35:48 AM 41.7403 -83.2309 97° East 467 537 41,000 300 Climbing FlightAware ADS-B (CYYZ)
Mon 09:36:18 AM 41.7311 -83.1377 97° East 467 537 41,000  Level FlightAware ADS-B (CYYZ)
Mon 09:36:48 AM 41.7230 -83.0576 97° East 468 539 41,000  Level FlightAware ADS-B (CYYZ)
Mon 09:37:19 AM 41.7142 -82.9698 97° East 465 535 41,000  Level FlightAware ADS-B (CYYZ)
Mon 09:37:48 AM 41.7054 -82.8822 97° East 464 534 41,000  Level FlightAware ADS-B (CYYZ)
Mon 09:38:18 AM 41.6967 -82.7974 97° East 463 533 41,000  Level FlightAware ADS-B (CYYZ)
Mon 09:38:46 AM 41.6895 -82.7272 97° East 463 533 41,000 378 Level FlightAware ADS-B (CYYZ)
Mon 09:40:09 AM 41.6672 -82.5156 97° East 462 532 41,700 621 Climbing Cleveland Center
Mon 09:41:11 AM 41.6464 -82.3161 98° East 461 531 42,500 510 Climbing Cleveland Center
Mon 09:46:37 AM 41.5475 -81.4212 98° East 454 522 45,000 388 Climbing FlightAware ADS-B (CYYZ)
Mon 09:47:38 AM 41.5291 -81.2651 98° East 454 522 45,000  Level FlightAware ADS-B (CYYZ)
Mon 09:48:05 AM 41.5177 -81.1692 99° East 455 524 45,000  Level FlightAware ADS-B (EPLB / LUZ)
Mon 09:48:39 AM 41.5107 -81.1027 96° East 452 520 45,000  Level FlightAware ADS-B (CYYZ)
Mon 09:48:57 AM 41.5109 -81.1055 96° East 453 521 45,000  Level FlightAware ADS-B (EPLB / LUZ)
Mon 09:50:09 AM 41.4879 -80.8193 97° East 453 521 45,000  Level FlightAware ADS-B (EPLB / LUZ)
Mon 09:50:29 AM 41.4881 -80.8006 80° East 440 506 45,000  Level FlightAware ADS-B (EPLB / LUZ)
Mon 09:51:05 AM 41.5100 -80.6785 71° East 431 496 45,000  Level FlightAware ADS-B (CYYZ)
Mon 09:51:53 AM 41.5391 -80.5565 72° East 432 497 45,000  Level FlightAware ADS-B (CYYZ)
Mon 09:52:23 AM 41.5587 -80.4738 72° East 432 497 45,000  Level FlightAware ADS-B (CYYZ)
Mon 09:52:53 AM 41.5767 -80.3980 72° East 432 497 45,000  Level FlightAware ADS-B (CYYZ)
Mon 09:53:24 AM 41.5941 -80.3247 72° East 433 498 45,000  Level FlightAware ADS-B (CYYZ)
Mon 09:53:54 AM 41.6132 -80.2441 72° East 433 498 45,000  Level FlightAware ADS-B (CYYZ)
Mon 09:54:24 AM 41.6311 -80.1681 72° East 433 498 45,000  Level FlightAware ADS-B (CYYZ)
Mon 09:54:53 AM 41.6491 -80.0917 72° East 433 498 45,000  Level FlightAware ADS-B (CYYZ)
Mon 09:55:24 AM 41.6673 -80.0143 72° East 433 498 45,000  Level FlightAware ADS-B (CYYZ)
Mon 09:55:54 AM 41.6851 -79.9383 72° East 434 499 45,000  Level FlightAware ADS-B (CYYZ)
Mon 09:56:21 AM 41.6956 -79.8933 73° East 434 499 45,000  Level FlightAware ADS-B (EPLB / LUZ)
Mon 09:56:24 AM 41.7022 -79.8649 72° East 434 499 45,000  Level FlightAware ADS-B (CYYZ)
Mon 09:56:54 AM 41.7210 -79.7838 72° East 434 499 45,000  Level FlightAware ADS-B (CYYZ)
Mon 09:57:02 AM 41.7207 -79.7851 73° East 434 499 45,000  Level FlightAware ADS-B (EPLB / LUZ)
Mon 09:57:24 AM 41.7383 -79.7087 72° East 435 501 45,000  Level FlightAware ADS-B (CYYZ)
Mon 09:57:33 AM 41.7443 -79.6827 73° East 435 501 45,000  Level FlightAware ADS-B (EPLB / LUZ)
Mon 09:57:53 AM 41.7561 -79.6318 72° East 435 501 45,000  Level FlightAware ADS-B (CYYZ)
Mon 09:58:14 AM 41.7683 -79.5786 73° East 435 501 45,000  Level FlightAware ADS-B (EPLB / LUZ)
Mon 09:58:23 AM 41.7738 -79.5544 73° East 434 499 45,000  Level FlightAware ADS-B (CYYZ)
Mon 09:58:44 AM 41.7849 -79.5060 73° East 436 502 45,000  Level FlightAware ADS-B (EPLB / LUZ)
Mon 09:58:54 AM 41.7916 -79.4769 72° East 436 502 45,000  Level FlightAware ADS-B (CYYZ)
Mon 09:59:24 AM 41.8095 -79.3988 73° East 435 501 45,000  Level FlightAware ADS-B (CYYZ)
Mon 09:59:54 AM 41.8274 -79.3202 73° East 436 502 45,000  Level FlightAware ADS-B (CYYZ)
Mon 09:59:58 AM 41.8299 -79.3092 73° East 437 503 45,000  Level FlightAware ADS-B (EPLB / LUZ)
Mon 10:00:24 AM 41.8448 -79.2434 73° East 437 503 45,000  Level FlightAware ADS-B (CYYZ)
Mon 10:00:53 AM 41.8620 -79.1669 73° East 437 503 45,000  Level FlightAware ADS-B (CYYZ)
Mon 10:01:05 AM 41.8591 -79.1798 73° East 439 505 45,000  Level FlightAware ADS-B (EPLB / LUZ)
Mon 10:01:24 AM 41.8797 -79.0884 73° East 438 504 45,000  Level FlightAware ADS-B (CYYZ)
Mon 10:01:44 AM 41.8919 -79.0340 73° East 439 505 45,000  Level FlightAware ADS-B (EPLB / LUZ)
Mon 10:01:53 AM 41.8967 -79.0127 73° East 438 504 45,000  Level FlightAware ADS-B (CYYZ)
Mon 10:02:24 AM 41.9145 -78.9330 73° East 439 505 45,000  Level FlightAware ADS-B (CYYZ)
Mon 10:02:38 AM 41.9229 -78.8951 74° East 439 505 45,000  Level FlightAware ADS-B (EPLB / LUZ)
Mon 10:02:54 AM 41.9323 -78.8528 73° East 440 506 45,000  Level FlightAware ADS-B (CYYZ)
Mon 10:03:24 AM 41.9495 -78.7754 73° East 440 506 45,000  Level FlightAware ADS-B (CYYZ)
Mon 10:03:53 AM 41.9667 -78.6976 73° East 440 506 45,000  Level FlightAware ADS-B (CYYZ)
Mon 10:04:24 AM 41.9844 -78.6172 73° East 441 507 45,000  Level FlightAware ADS-B (CYYZ)
Mon 10:04:53 AM 42.0016 -78.5389 73° East 441 507 45,000  Level FlightAware ADS-B (CYYZ)
Mon 10:05:24 AM 42.0189 -78.4597 73° East 441 507 45,000  Level FlightAware ADS-B (CYYZ)
Mon 10:05:53 AM 42.0359 -78.3817 73° East 441 507 45,000  Level FlightAware ADS-B (CYYZ)
Mon 10:06:23 AM 42.0532 -78.3019 73° East 442 509 45,000  Level FlightAware ADS-B (CYYZ)
Mon 10:06:44 AM 42.0640 -78.2510 73° East 443 510 45,000  Level FlightAware ADS-B
Mon 10:06:53 AM 42.0698 -78.2248 73° East 442 509 45,000  Level FlightAware ADS-B (CYYZ)
Mon 10:07:24 AM 42.0873 -78.1438 73° East 443 510 45,000  Level FlightAware ADS-B (CYYZ)
Mon 10:07:41 AM 42.0990 -78.0980 65° Northeast 436 502 45,000  Level FlightAware ADS-B
Mon 10:08:13 AM 42.1268 -78.0230 64° Northeast 431 496 45,000  Level FlightAware ADS-B (CYYZ)
Mon 10:08:18 AM 42.1290 -78.0160 64° Northeast 432 497 45,000  Level FlightAware ADS-B
Mon 10:08:44 AM 42.1526 -77.9501 64° Northeast 430 495 45,000  Level FlightAware ADS-B (CYYZ)
Mon 10:08:47 AM 42.1560 -77.9410 64° Northeast 432 497 45,000  Level FlightAware ADS-B
Mon 10:09:14 AM 42.1784 -77.8760 65° Northeast 429 494 45,000  Level FlightAware ADS-B (CYYZ)
Mon 10:09:23 AM 42.1870 -77.8520 64° Northeast 430 495 45,000  Level FlightAware ADS-B
Mon 10:09:44 AM 42.2037 -77.8029 64° Northeast 428 493 45,000  Level FlightAware ADS-B (CYYZ)
Mon 10:09:55 AM 42.2120 -77.7780 64° Northeast 429 494 45,000  Level FlightAware ADS-B
Mon 10:10:13 AM 42.2292 -77.7295 65° Northeast 427 491 45,000  Level FlightAware ADS-B (CYYZ)
Mon 10:10:26 AM 42.2390 -77.7000 64° Northeast 428 493 45,000  Level FlightAware ADS-B
Mon 10:10:44 AM 42.2539 -77.6577 65° Northeast 425 489 45,000  Level FlightAware ADS-B (CYYZ)
Mon 10:11:04 AM 42.2700 -77.6110 64° Northeast 425 489 45,000  Level FlightAware ADS-B
Mon 10:11:14 AM 42.2780 -77.5881 64° Northeast 425 489 45,000  Level FlightAware ADS-B (CYYZ)
Mon 10:11:34 AM 42.2950 -77.5380 64° Northeast 425 489 45,000  Level FlightAware ADS-B
Mon 10:11:44 AM 42.3041 -77.5134 64° Northeast 423 487 45,000  Level FlightAware ADS-B (CYYZ)
Mon 10:11:59 AM 42.3160 -77.4780 68° East 428 493 45,000  Level FlightAware ADS-B
Mon 10:12:18 AM 42.3271 -77.4264 76° East 432 497 45,000  Level FlightAware ADS-B (CYYZ)
Mon 10:12:36 AM 42.3360 -77.3810 75° East 432 497 45,000  Level FlightAware ADS-B
Mon 10:12:49 AM 42.3422 -77.3478 75° East 429 494 45,000  Level FlightAware ADS-B (CYYZ)
Mon 10:13:04 AM 42.3500 -77.3090 74° East 430 495 45,000  Level FlightAware ADS-B
Mon 10:13:17 AM 42.3567 -77.2746 75° East 429 494 45,000  Level FlightAware ADS-B (CYYZ)
Mon 10:13:20 AM 42.3574 -77.2709 76° East 427 491 45,000  Level FlightAware ADS-B
Mon 10:13:41 AM 42.3670 -77.2220 75° East 430 495 45,000  Level FlightAware ADS-B
Mon 10:13:48 AM 42.3722 -77.1954 75° East 428 493 45,000  Level FlightAware ADS-B (CYYZ)
Mon 10:14:00 AM 42.3775 -77.1676 77° East 427 491 45,000  Level FlightAware ADS-B
Mon 10:14:19 AM 42.3873 -77.1167 75° East 428 493 45,000  Level FlightAware ADS-B (CYYZ)
Mon 10:14:29 AM 42.3930 -77.0890 75° East 429 494 45,000  Level FlightAware ADS-B
Mon 10:14:31 AM 42.3937 -77.0831 75° East 429 494 45,000  Level FlightAware ADS-B
Mon 10:14:48 AM 42.4013 -77.0437 75° East 428 493 45,000  Level FlightAware ADS-B (CYYZ)
Mon 10:15:05 AM 42.4110 -76.9950 75° East 428 493 45,000  Level FlightAware ADS-B
Mon 10:15:17 AM 42.4121 -76.9868 76° East 427 491 45,000  Level FlightAware ADS-B
Mon 10:15:19 AM 42.4168 -76.9618 75° East 427 491 45,000  Level FlightAware ADS-B (CYYZ)
Mon 10:15:39 AM 42.4260 -76.9140 75° East 428 493 45,000  Level FlightAware ADS-B
Mon 10:15:48 AM 42.4316 -76.8837 75° East 427 491 45,000  Level FlightAware ADS-B (CYYZ)
Mon 10:15:59 AM 42.4357 -76.8623 77° East 425 489 45,000  Level FlightAware ADS-B
Mon 10:16:12 AM 42.4430 -76.8220 75° East 428 493 45,000  Level FlightAware ADS-B
Mon 10:16:19 AM 42.4462 -76.8066 75° East 427 491 45,000  Level FlightAware ADS-B (CYYZ)
Mon 10:16:39 AM 42.4556 -76.7564 77° East 425 489 45,000  Level FlightAware ADS-B
Mon 10:16:43 AM 42.4580 -76.7460 75° East 428 493 45,000  Level FlightAware ADS-B
Mon 10:16:49 AM 42.4609 -76.7279 75° East 426 490 45,000  Level FlightAware ADS-B (CYYZ)
Mon 10:17:19 AM 42.4755 -76.6496 75° East 426 490 45,000  Level FlightAware ADS-B (CYYZ)
Mon 10:17:39 AM 42.4817 -76.6167 77° East 425 489 45,000  Level FlightAware ADS-B
Mon 10:17:49 AM 42.4900 -76.5714 76° East 426 490 45,000  Level FlightAware ADS-B (CYYZ)
Mon 10:18:04 AM 42.4970 -76.5340 75° East 427 491 45,000  Level FlightAware ADS-B
Mon 10:18:19 AM 42.5040 -76.4962 76° East 426 490 45,000  Level FlightAware ADS-B (CYYZ)
Mon 10:18:37 AM 42.5120 -76.4500 75° East 427 491 45,000  Level FlightAware ADS-B
Mon 10:18:39 AM 42.5102 -76.4625 77° East 425 489 45,000  Level FlightAware ADS-B
Mon 10:18:49 AM 42.5188 -76.4162 76° East 426 490 45,000  Level FlightAware ADS-B (CYYZ)
Mon 10:19:04 AM 42.5260 -76.3780 76° East 427 491 45,000  Level FlightAware ADS-B
Mon 10:19:18 AM 42.5329 -76.3393 76° East 426 490 45,000  Level FlightAware ADS-B (CYYZ)
Mon 10:19:42 AM 42.5440 -76.2810 76° East 428 493 45,000  Level FlightAware ADS-B
Mon 10:19:49 AM 42.5469 -76.2628 76° East 427 491 45,000  Level FlightAware ADS-B (CYYZ)
Mon 10:20:18 AM 42.5614 -76.1832 76° East 426 490 45,000  Level FlightAware ADS-B (CYYZ)
Mon 10:20:49 AM 42.5752 -76.1069 76° East 426 490 45,000  Level FlightAware ADS-B (CYYZ)
Mon 10:20:50 AM 42.5740 -76.1160 76° East 427 491 45,000  Level FlightAware ADS-B
Mon 10:21:19 AM 42.5896 -76.0276 76° East 426 490 45,000  Level FlightAware ADS-B (CYYZ)
Mon 10:21:24 AM 42.5910 -76.0190 76° East 426 490 45,000  Level FlightAware ADS-B
Mon 10:21:37 AM 42.5948 -75.9989 76° East 425 489 45,000  Level FlightAware ADS-B
Mon 10:21:49 AM 42.6033 -75.9518 76° East 424 488 45,000  Level FlightAware ADS-B (CYYZ)
Mon 10:21:56 AM 42.6070 -75.9330 76° East 426 490 45,000  Level FlightAware ADS-B
Mon 10:22:19 AM 42.6174 -75.8727 76° East 423 487 45,000  Level FlightAware ADS-B (CYYZ)
Mon 10:22:25 AM 42.6190 -75.8610 76° East 425 489 45,000  Level FlightAware ADS-B
Mon 10:22:48 AM 42.6313 -75.7950 76° East 423 487 45,000  Level FlightAware ADS-B (CYYZ)
Mon 10:23:01 AM 42.6370 -75.7630 76° East 423 487 45,000  Level FlightAware ADS-B
Mon 10:23:18 AM 42.6450 -75.7180 76° East 422 486 45,000  Level FlightAware ADS-B (CYYZ)
Mon 10:23:32 AM 42.6510 -75.6860 76° East 423 487 45,000  Level FlightAware ADS-B
Mon 10:23:49 AM 42.6585 -75.6416 76° East 422 486 45,000  Level FlightAware ADS-B (CYYZ)
Mon 10:24:06 AM 42.6650 -75.6030 76° East 423 487 45,000  Level FlightAware ADS-B
Mon 10:24:19 AM 42.6720 -75.5653 76° East 422 486 45,000  Level FlightAware ADS-B (CYYZ)
Mon 10:24:44 AM 42.6830 -75.5000 76° East 422 486 45,000  Level FlightAware ADS-B
Mon 10:24:49 AM 42.6857 -75.4868 76° East 421 484 45,000  Level FlightAware ADS-B (CYYZ)
Mon 10:25:12 AM 42.6960 -75.4270 76° East 423 487 45,000  Level FlightAware ADS-B
Mon 10:25:19 AM 42.6990 -75.4111 76° East 422 486 45,000  Level FlightAware ADS-B (CYYZ)
Mon 10:25:36 AM 42.6999 -75.4057 76° East 425 489 45,000  Level FlightAware ADS-B
Mon 10:25:49 AM 42.7122 -75.3348 76° East 421 484 45,000  Level FlightAware ADS-B (CYYZ)
Mon 10:26:13 AM 42.7220 -75.2810 76° East 422 486 45,000  Level FlightAware ADS-B
Mon 10:26:19 AM 42.7253 -75.2597 76° East 421 484 45,000  Level FlightAware ADS-B (CYYZ)
Mon 10:26:36 AM 42.7340 -75.2090 77° East 422 486 45,000  Level FlightAware ADS-B
Mon 10:26:48 AM 42.7394 -75.1778 76° East 422 486 45,000  Level FlightAware ADS-B (CYYZ)
Mon 10:26:49 AM 42.7390 -75.1780 76° East 423 487 45,000  Level FlightAware ADS-B
Mon 10:27:10 AM 42.7492 -75.1206 77° East 421 484 45,000  Level FlightAware ADS-B
Mon 10:27:18 AM 42.7501 -75.1155 76° East 420 483 45,000  Level FlightAware ADS-B (CYYZ)
Mon 10:27:20 AM 42.7520 -75.1030 76° East 422 486 45,000  Level FlightAware ADS-B
Mon 10:27:40 AM 42.7622 -75.0449 77° East 422 486 45,000  Level FlightAware ADS-B
Mon 10:27:48 AM 42.7657 -75.0248 76° East 420 483 45,000  Level FlightAware ADS-B (CYYZ)
Mon 10:28:03 AM 42.7720 -74.9900 76° East 423 487 45,000  Level FlightAware ADS-B
Mon 10:28:18 AM 42.7700 -74.9992 76° East 420 483 45,000  Level FlightAware ADS-B (CYYZ)
Mon 10:28:22 AM 42.7807 -74.9369 77° East 421 484 45,000  Level FlightAware ADS-B
Mon 10:28:39 AM 42.7880 -74.8960 76° East 421 484 45,000  Level FlightAware ADS-B
Mon 10:28:55 AM 42.7937 -74.8603 78° East 419 482 45,000  Level FlightAware ADS-B
Mon 10:29:08 AM 42.8010 -74.8190 77° East 422 486 45,000  Level FlightAware ADS-B
Mon 10:29:27 AM 42.8084 -74.7731 77° East 423 487 45,000  Level FlightAware ADS-B
Mon 10:29:34 AM 42.8123 -74.7493 77° East 422 486 45,000  Level FlightAware ADS-B
Mon 10:29:44 AM 42.8170 -74.7240 77° East 423 487 45,000  Level FlightAware ADS-B
Mon 10:30:14 AM 42.8290 -74.6470 77° East 423 487 45,000  Level FlightAware ADS-B
Mon 10:30:49 AM 42.8440 -74.5580 77° East 425 489 45,000  Level FlightAware ADS-B
Mon 10:31:06 AM 42.8488 -74.5305 77° East 426 490 45,000  Level FlightAware ADS-B
Mon 10:31:51 AM 42.8710 -74.3930 77° East 425 489 45,000  Level FlightAware ADS-B
Mon 10:31:57 AM 42.8741 -74.3775 77° East 423 487 45,000  Level FlightAware ADS-B
Mon 10:32:30 AM 42.8869 -74.2991 78° East 422 486 45,000  Level FlightAware ADS-B
Mon 10:32:58 AM 42.9000 -74.2200 77° East 423 487 45,000  Level FlightAware ADS-B
Mon 10:33:14 AM 42.9032 -74.1993 79° East 421 484 45,000  Level FlightAware ADS-B
Mon 10:33:29 AM 42.9130 -74.1390 77° East 425 489 45,000  Level FlightAware ADS-B
Mon 10:34:02 AM 42.9268 -74.0542 78° East 424 488 45,000  Level FlightAware ADS-B
Mon 10:34:04 AM 42.9280 -74.0490 77° East 425 489 45,000  Level FlightAware ADS-B
Mon 10:34:35 AM 42.9400 -73.9710 77° East 422 486 45,000  Level FlightAware ADS-B
Mon 10:34:36 AM 42.9411 -73.9653 78° East 422 486 45,000  Level FlightAware ADS-B
Mon 10:35:14 AM 42.9569 -73.8663 78° East 425 489 45,000  Level FlightAware ADS-B
Mon 10:35:36 AM 42.9660 -73.8080 77° East 424 488 45,000  Level FlightAware ADS-B
Mon 10:35:53 AM 42.9730 -73.7650 78° East 424 488 45,000  Level FlightAware ADS-B
Mon 10:36:14 AM 42.9820 -73.7090 77° East 424 488 45,000  Level FlightAware ADS-B
Mon 10:36:25 AM 42.9743 -73.7566 78° East 423 487 45,000  Level FlightAware ADS-B (SBBR / BSB)
Mon 10:36:46 AM 42.9950 -73.6250 77° East 423 487 45,000  Level FlightAware ADS-B
Mon 10:37:16 AM 43.0071 -73.5486 78° East 423 487 45,000  Level FlightAware ADS-B
Mon 10:37:52 AM 43.0132 -73.5095 79° East 423 487 45,000  Level FlightAware ADS-B
Mon 10:38:04 AM 43.0270 -73.4240 78° East 426 490 45,000  Level FlightAware ADS-B
Mon 10:38:28 AM 43.0363 -73.3604 78° East 424 488 45,000  Level FlightAware ADS-B
Mon 10:38:36 AM 43.0390 -73.3410 78° East 425 489 45,000  Level FlightAware ADS-B
Mon 10:39:10 AM 43.0530 -73.2510 78° East 425 489 45,000  Level FlightAware ADS-B
Mon 10:39:12 AM 43.0528 -73.2535 79° East 423 487 45,000  Level FlightAware ADS-B
Mon 10:39:46 AM 43.0680 -73.1550 78° East 425 489 45,000  Level FlightAware ADS-B
Mon 10:40:12 AM 43.0778 -73.0901 78° East 425 489 45,000  Level FlightAware ADS-B
Mon 10:40:20 AM 43.0810 -73.0690 78° East 425 489 45,000  Level FlightAware ADS-B
Mon 10:40:59 AM 43.0950 -72.9760 78° East 425 489 45,000  Level FlightAware ADS-B
Mon 10:41:28 AM 43.1080 -72.8870 78° East 426 490 45,000  Level FlightAware ADS-B
Mon 10:41:34 AM 43.1106 -72.8732 79° East 425 489 45,000  Level FlightAware ADS-B (KASH)
Mon 10:41:59 AM 43.1180 -72.8260 78° East 426 490 45,000  Level FlightAware ADS-B
Mon 10:42:07 AM 43.1181 -72.8233 79° East 426 490 45,000  Level FlightAware ADS-B (SBBR / BSB)
Mon 10:42:46 AM 43.1390 -72.6850 78° East 426 490 45,000  Level FlightAware ADS-B
Mon 10:42:56 AM 43.1429 -72.6561 79° East 425 489 45,000  Level FlightAware ADS-B (KASH)
Mon 10:43:17 AM 43.1510 -72.6000 78° East 426 490 45,000  Level FlightAware ADS-B
Mon 10:43:26 AM 43.1544 -72.5788 79° East 425 489 45,000  Level FlightAware ADS-B (KASH)
Mon 10:44:05 AM 43.1700 -72.4750 78° East 426 490 45,000  Level FlightAware ADS-B
Mon 10:44:10 AM 43.1716 -72.4618 79° East 425 489 45,000  Level FlightAware ADS-B (KASH)
Mon 10:44:40 AM 43.1832 -72.3821 79° East 426 490 45,000  Level FlightAware ADS-B (KASH)
Mon 10:45:03 AM 43.1920 -72.3200 78° East 427 491 45,000  Level FlightAware ADS-B
Mon 10:45:11 AM 43.1949 -72.3015 79° East 425 489 45,000  Level FlightAware ADS-B (KASH)
Mon 10:45:47 AM 43.2087 -72.2053 79° East 425 489 45,000  Level FlightAware ADS-B (KSNC)
Mon 10:46:26 AM 43.2234 -72.1030 79° East 426 490 45,000  Level FlightAware ADS-B (KASH)
Mon 10:47:11 AM 43.2402 -71.9846 79° East 426 490 45,000  Level FlightAware ADS-B (KASH)
Mon 10:47:21 AM 43.2440 -71.9560 78° East 427 491 45,000  Level FlightAware ADS-B
Mon 10:47:41 AM 43.2516 -71.9043 79° East 428 493 45,000  Level FlightAware ADS-B (KASH)
Mon 10:47:56 AM 43.2570 -71.8630 79° East 428 493 45,000  Level FlightAware ADS-B
Mon 10:48:22 AM 43.2671 -71.7938 79° East 428 493 45,000  Level FlightAware ADS-B (EPKK / KRK)
Mon 10:48:28 AM 43.2690 -71.7790 79° East 428 493 45,000  Level FlightAware ADS-B
Mon 10:48:53 AM 43.2781 -71.7146 79° East 427 491 45,000  Level FlightAware ADS-B (EPKK / KRK)
Mon 10:48:58 AM 43.2800 -71.6980 79° East 428 493 45,000  Level FlightAware ADS-B
Mon 10:49:23 AM 43.2894 -71.6330 79° East 427 491 45,000  Level FlightAware ADS-B (EPKK / KRK)
Mon 10:49:28 AM 43.2910 -71.6180 79° East 428 493 45,000  Level FlightAware ADS-B
Mon 10:49:53 AM 43.3005 -71.5522 79° East 427 491 45,000  Level FlightAware ADS-B (EPKK / KRK)
Mon 10:49:59 AM 43.3030 -71.5360 79° East 428 493 45,000  Level FlightAware ADS-B
Mon 10:50:25 AM 43.3122 -71.4673 79° East 427 491 45,000  Level FlightAware ADS-B (KASH)
Mon 10:50:38 AM 43.3170 -71.4320 79° East 428 493 45,000  Level FlightAware ADS-B
Mon 10:51:09 AM 43.3279 -71.3524 80° East 428 493 45,000  Level FlightAware ADS-B (EPKK / KRK)
Mon 10:51:19 AM 43.3320 -71.3240 79° East 429 494 45,000  Level FlightAware ADS-B
Mon 10:51:24 AM 43.3333 -71.3122 80° East 427 491 45,000  Level FlightAware ADS-B (SBBR / BSB)
Mon 10:51:38 AM 43.3387 -71.2723 81° East 425 489 45,000  Level FlightAware ADS-B (KASH)
Mon 10:52:00 AM 43.3460 -71.2150 79° East 427 491 45,000  Level FlightAware ADS-B
Mon 10:52:11 AM 43.3503 -71.1862 81° East 425 489 45,000  Level FlightAware ADS-B (KASH)
Mon 10:52:38 AM 43.3600 -71.1130 79° East 429 494 45,000  Level FlightAware ADS-B
Mon 10:52:44 AM 43.3618 -71.1006 80° East 427 491 45,000  Level FlightAware ADS-B (EPKK / KRK)
Mon 10:52:55 AM 43.3660 -71.0687 81° East 425 489 45,000  Level FlightAware ADS-B (KASH)
Mon 10:53:19 AM 43.3740 -71.0100 79° East 427 491 45,000 -387 Level FlightAware ADS-B
Mon 10:53:26 AM 43.3769 -70.9873 81° East 428 493 44,800 -1,946 Descending FlightAware ADS-B (KASH)
Mon 10:53:56 AM 43.3880 -70.9040 79° East 442 509 43,800 -2,053 Descending FlightAware ADS-B
Mon 10:54:04 AM 43.3905 -70.8843 80° East 444 511 43,500 -2,143 Descending FlightAware ADS-B (EPKK / KRK)
Mon 10:54:24 AM 43.3940 -70.8260 88° East 453 521 42,800 -2,129 Descending FlightAware ADS-B
Mon 10:54:35 AM 43.3929 -70.7940 96° East 458 527 42,400 -2,000 Descending FlightAware ADS-B (EPKK / KRK)
Mon 10:54:42 AM 43.3910 -70.7740 99° East 460 529 42,200 -2,000 Descending FlightAware ADS-B
Mon 10:54:56 AM 43.3836 -70.7353 107° East 462 532 41,700 -2,372 Descending FlightAware ADS-B (KASH)
Mon 10:55:25 AM 43.3568 -70.6570 121° Southeast 462 532 40,500 -2,182 Descending FlightAware ADS-B (KASH)
Mon 10:55:29 AM 43.3560 -70.6560 124° Southeast 468 539 40,500 -2,400 Level FlightAware ADS-B
Mon 10:55:45 AM 43.3306 -70.6105 132° Southeast 469 540 39,700 -2,842 Descending FlightAware ADS-B (EPKK / KRK)
Mon 10:55:48 AM 43.3259 -70.6039 132° Southeast 464 534 39,600 -2,769 Descending FlightAware ADS-B (SBBR / BSB)
Mon 10:56:11 AM 43.2867 -70.5597 146° Southeast 472 543 38,500 -2,717 Descending FlightAware ADS-B (KASH)
Mon 10:56:41 AM 43.2278 -70.5215 161° South 460 529 37,200 -2,600 Descending FlightAware ADS-B (KASH)
Mon 10:57:11 AM 43.1664 -70.4935 160° South 458 527 35,900 -2,700 Descending FlightAware ADS-B (KASH)
Mon 10:57:41 AM 43.1060 -70.4641 161° South 458 527 34,500 -2,800 Descending FlightAware ADS-B (KASH)
Mon 10:58:11 AM 43.0467 -70.4358 161° South 456 525 33,100 -2,710 Descending FlightAware ADS-B (KASH)
Mon 10:58:43 AM 42.9841 -70.4066 161° South 460 529 31,700 -2,613 Descending FlightAware ADS-B (EPKK / KRK)
Mon 10:59:13 AM 42.9222 -70.3778 161° South 457 526 30,400 -2,700 Descending FlightAware ADS-B (EPKK / KRK)
Mon 10:59:43 AM 42.8630 -70.3504 161° South 444 511 29,000 -2,700 Descending FlightAware ADS-B (EPKK / KRK)
Mon 11:00:13 AM 42.8095 -70.3255 161° South 429 494 27,700 -2,625 Descending FlightAware ADS-B (EPKK / KRK)
Mon 11:00:47 AM 42.7434 -70.2950 161° South 430 495 26,200 -2,712 Descending FlightAware ADS-B (EPKK / KRK)
Mon 11:01:26 AM 42.6671 -70.2599 161° South 426 490 24,400 -2,743 Descending FlightAware ADS-B (KASH)
Mon 11:01:57 AM 42.6093 -70.2333 161° South 430 495 23,000 -2,727 Descending FlightAware ADS-B (KASH)
Mon 11:02:10 AM 42.5847 -70.2222 164° South 436 502 22,400 -2,727 Descending FlightAware ADS-B (KASH)
Mon 11:02:52 AM 42.5043 -70.1958 167° South 425 489 20,500 -2,712 Descending FlightAware ADS-B (EPKK / KRK)
Mon 11:03:23 AM 42.4445 -70.1772 167° South 418 481 19,100 -2,719 Descending FlightAware ADS-B (EPKK / KRK)
Mon 11:03:56 AM 42.3817 -70.1568 166° South 413 475 17,600 -2,727 Descending FlightAware ADS-B (KASH)
Mon 11:04:29 AM 42.3206 -70.1368 166° South 408 470 16,100 -2,559 Descending FlightAware ADS-B (EPKK / KRK)
Mon 11:05:04 AM 42.2566 -70.1158 166° South 400 460 14,700 -2,308 Descending FlightAware ADS-B (EPKK / KRK)
Mon 11:05:34 AM 42.2035 -70.0982 166° South 390 449 13,600 -2,066 Descending FlightAware ADS-B (EPKK / KRK)
Mon 11:06:05 AM 42.1509 -70.0809 166° South 383 441 12,600 -1,846 Descending FlightAware ADS-B (EPKK / KRK)
Mon 11:06:52 AM 42.0707 -70.0546 166° South 365 420 11,200 -1,063 Descending FlightAware ADS-B (EPKK / KRK)
Mon 11:07:24 AM 42.0199 -70.0383 169° South 350 403 11,200  Level FlightAware ADS-B (EPKK / KRK)
Mon 11:07:34 AM 42.0036 -70.0365 180° South 347 399 11,200 -566 Level FlightAware ADS-B (EPKK / KRK)
Mon 11:08:17 AM 41.9603 -70.0394 180° South 344 396 10,700 -1,282 Descending Boston Center
Mon 11:09:17 AM 41.8789 -70.0417 181° South 297 342 9,000 -1,750 Descending Boston Center
Mon 11:10:17 AM 41.7994 -70.0439 181° South 288 331 7,200 -1,820 Descending Boston Center
Mon 11:11:19 AM 41.7044 -70.0467 181° South 288 331 5,300 -1,008 Descending Boston Center
Mon 11:12:22 AM 41.6275 -70.0486 181° South 285 328 5,100 -98 Descending Boston Center
Mon 11:13:22 AM 41.5486 -70.0478 180° South 283 326 5,100 -50 Level Boston Center
Mon 11:14:23 AM 41.4706 -70.0386 175° South 282 325 5,000 -1,041 Descending Boston Center
Mon 11:15:23 AM 41.3931 -70.0447 183° South 282 325 3,000 -1,742 Descending Boston Center
Mon 11:16:27 AM 41.3211 -70.0572 187° South 272 313 1,400 -912 Descending Boston Center
Mon 11:17:28 AM 41.2769 -70.0208 148° Southeast 221 254 1,100 -298 Descending Boston Center
Mon 11:18:28 AM 41.2439 -70.0100 166° South 182 209 800 -250 Descending Boston Center
Mon 11:19:28 AM 41.2469 -70.0728 274° West 173 199 600 -200 Descending Boston Center

Login

Don't have an account? Register now (free) for customized features, flight alerts, and more!